createdAt,value
2023-04-06T00:01:48.522Z,6.15
2023-04-06T00:04:15.756Z,6.47
2023-04-06T00:06:56.572Z,7.03
2023-04-06T00:09:39.578Z,6.72
2023-04-06T00:12:13.401Z,6.38
2023-04-06T00:14:41.486Z,6.93
2023-04-06T00:17:09.036Z,6.90
2023-04-06T00:19:43.445Z,7.70
2023-04-06T00:22:11.023Z,6.75
2023-04-06T00:24:38.157Z,7.65
2023-04-06T00:27:12.283Z,7.57
2023-04-06T00:29:39.806Z,7.90
2023-04-06T00:34:40.550Z,7.47
2023-04-06T00:37:07.631Z,7.90
2023-04-06T00:39:41.596Z,8.10
2023-04-06T00:42:14.916Z,8.95
2023-04-06T00:44:52.491Z,8.70
2023-04-06T00:47:19.743Z,8.32
2023-04-06T00:49:46.828Z,8.07
2023-04-06T00:52:20.319Z,7.95
2023-04-06T00:54:47.717Z,7.80
2023-04-06T00:57:21.388Z,8.77
2023-04-06T00:59:48.760Z,8.88
2023-04-06T01:02:16.034Z,8.45
2023-04-06T01:04:50.311Z,9.13
2023-04-06T01:07:25.553Z,9.30
2023-04-06T01:10:01.469Z,8.73
2023-04-06T01:12:28.641Z,8.85
2023-04-06T01:14:56.035Z,8.63
2023-04-06T01:17:30.351Z,9.23
2023-04-06T01:19:57.674Z,8.38
2023-04-06T01:22:39.921Z,9.20
2023-04-06T01:25:07.313Z,9.60
2023-04-06T01:27:47.438Z,9.40
2023-04-06T01:30:14.717Z,9.27
2023-04-06T01:32:42.064Z,8.32
2023-04-06T01:35:16.397Z,10.23
2023-04-06T01:37:43.603Z,10.05
2023-04-06T01:40:18.479Z,9.73
2023-04-06T01:42:45.679Z,10.35
2023-04-06T01:45:12.801Z,9.43
2023-04-06T01:47:46.459Z,9.57
2023-04-06T01:50:13.705Z,10.15
2023-04-06T01:52:48.620Z,10.32
2023-04-06T01:55:15.782Z,10.05
2023-04-06T01:57:42.866Z,10.40
2023-04-06T02:00:17.310Z,10.18
2023-04-06T02:02:44.474Z,10.85
2023-04-06T02:05:18.471Z,9.90
2023-04-06T02:07:52.657Z,11.50
2023-04-06T02:10:26.328Z,10.98
2023-04-06T02:13:00.257Z,10.35
2023-04-06T02:15:28.247Z,10.77
2023-04-06T02:18:02.413Z,10.25
2023-04-06T02:20:29.884Z,10.20
2023-04-06T02:25:30.450Z,10.10
2023-04-06T02:27:57.629Z,11.00
2023-04-06T02:30:31.297Z,11.10
2023-04-06T02:32:58.417Z,10.68
2023-04-06T02:35:34.620Z,10.80
2023-04-06T02:38:01.783Z,10.40
2023-04-06T02:40:28.964Z,10.60
2023-04-06T02:43:02.324Z,10.70
2023-04-06T02:45:29.486Z,11.00
2023-04-06T02:48:03.571Z,10.48
2023-04-06T02:50:31.059Z,9.70
2023-04-06T02:52:58.150Z,11.07
2023-04-06T02:55:32.399Z,11.27
2023-04-06T02:57:59.565Z,11.10
2023-04-06T03:03:29.380Z,9.23
2023-04-06T03:06:05.414Z,9.65
2023-04-06T03:08:43.528Z,9.02
2023-04-06T03:13:51.513Z,8.80
2023-04-06T03:16:25.623Z,9.73
2023-04-06T03:18:53.126Z,9.10
2023-04-06T03:21:33.257Z,9.65
2023-04-06T03:24:07.484Z,9.55
2023-04-06T03:26:34.770Z,9.13
2023-04-06T03:29:02.042Z,9.32
2023-04-06T03:31:36.460Z,8.85
2023-04-06T03:34:03.602Z,8.45
2023-04-06T03:36:38.455Z,8.82
2023-04-06T03:39:06.087Z,8.80
2023-04-06T03:41:33.704Z,8.15
2023-04-06T03:44:07.420Z,9.25
2023-04-06T03:46:40.943Z,9.15
2023-04-06T03:49:14.484Z,9.45
2023-04-06T03:51:41.722Z,9.65
2023-04-06T03:54:08.809Z,9.25
2023-04-06T03:56:44.443Z,9.18
2023-04-06T03:59:11.813Z,8.60
2023-04-06T04:04:13.715Z,9.05
2023-04-06T04:07:00.595Z,8.98
2023-04-06T04:09:29.667Z,8.13
2023-04-06T04:11:57.336Z,9.38
2023-04-06T04:14:31.310Z,8.50
2023-04-06T04:16:58.606Z,8.68
2023-04-06T04:19:32.381Z,9.10
2023-04-06T04:21:59.524Z,8.95
2023-04-06T04:24:27.129Z,9.02
2023-04-06T04:27:15.341Z,8.93
2023-04-06T04:29:49.313Z,9.65
2023-04-06T04:32:24.529Z,8.65
2023-04-06T04:34:51.641Z,9.18
2023-04-06T04:37:18.948Z,9.30
2023-04-06T04:39:53.341Z,7.88
2023-04-06T04:42:20.497Z,8.18
2023-04-06T04:44:54.743Z,9.73
2023-04-06T04:47:21.910Z,9.95
2023-04-06T04:49:49.005Z,10.73
2023-04-06T04:52:23.362Z,10.98
2023-04-06T04:54:50.634Z,10.32
2023-04-06T04:57:24.503Z,9.65
2023-04-06T04:59:51.945Z,9.90
2023-04-06T05:02:19.249Z,9.70
2023-04-06T05:07:27.239Z,6.30
2023-04-06T05:10:01.404Z,6.90
2023-04-06T05:12:28.618Z,6.13
2023-04-06T05:14:55.977Z,5.90
2023-04-06T05:17:29.370Z,5.97
2023-04-06T05:19:56.626Z,5.60
2023-04-06T05:22:37.843Z,5.63
2023-04-06T05:25:05.217Z,5.10
2023-04-06T05:27:48.552Z,5.70
2023-04-06T05:30:16.146Z,5.45
2023-04-06T05:35:19.410Z,4.57
2023-04-06T05:37:46.584Z,4.72
2023-04-06T05:40:20.608Z,4.60
2023-04-06T05:42:48.087Z,4.95
2023-04-06T05:47:51.388Z,4.43
2023-04-06T05:50:18.564Z,4.13
2023-04-06T05:52:54.590Z,5.05
2023-04-06T05:55:21.720Z,4.60
2023-04-06T05:57:48.932Z,4.88
2023-04-06T06:00:22.397Z,4.25
2023-04-06T06:02:49.605Z,4.28
2023-04-06T06:05:23.670Z,4.28
2023-04-06T06:07:57.441Z,3.55
2023-04-06T06:10:31.357Z,4.00
2023-04-06T06:13:05.260Z,4.40
2023-04-06T06:15:39.461Z,3.85
2023-04-06T06:18:06.854Z,4.10
2023-04-06T06:20:40.415Z,3.95
2023-04-06T06:23:07.576Z,4.03
2023-04-06T06:25:34.770Z,4.03
2023-04-06T06:28:08.452Z,3.83
2023-04-06T06:30:35.688Z,3.58
2023-04-06T06:33:09.446Z,4.00
2023-04-06T06:35:36.620Z,3.50
2023-04-06T06:38:03.830Z,3.22
2023-04-06T06:40:37.406Z,3.33
2023-04-06T06:43:04.678Z,3.35
2023-04-06T06:45:39.559Z,3.40
2023-04-06T06:48:06.853Z,3.25
2023-04-06T06:50:34.041Z,3.00
2023-04-06T06:53:07.413Z,2.72
2023-04-06T06:55:34.575Z,2.80
2023-04-06T06:58:01.687Z,3.30
2023-04-06T07:00:35.405Z,2.92
2023-04-06T07:03:02.784Z,2.60
2023-04-06T07:05:36.502Z,3.00
2023-04-06T07:08:10.348Z,2.33
2023-04-06T07:10:44.615Z,2.28
2023-04-06T07:13:12.037Z,2.63
2023-04-06T07:15:39.194Z,2.42
2023-04-06T07:18:13.737Z,2.85
2023-04-06T07:20:41.077Z,2.95
2023-04-06T07:23:08.522Z,1.55
2023-04-06T07:25:42.385Z,2.80
2023-04-06T07:28:09.620Z,2.60
2023-04-06T07:30:43.534Z,2.17
2023-04-06T07:33:10.757Z,2.40
2023-04-06T07:35:38.208Z,2.80
2023-04-06T07:38:12.455Z,1.98
2023-04-06T07:40:39.663Z,2.40
2023-04-06T07:43:13.715Z,2.08
2023-04-06T07:45:41.083Z,2.47
2023-04-06T07:48:08.418Z,2.60
2023-04-06T07:50:46.494Z,2.30
2023-04-06T07:53:13.858Z,2.25
2023-04-06T07:55:40.950Z,2.63
2023-04-06T07:58:14.400Z,2.00
2023-04-06T08:00:41.613Z,2.17
2023-04-06T08:03:15.686Z,2.42
2023-04-06T08:05:43.012Z,2.65
2023-04-06T08:08:23.488Z,2.78
2023-04-06T08:11:04.537Z,2.10
2023-04-06T08:13:31.794Z,2.22
2023-04-06T08:15:59.155Z,2.70
2023-04-06T08:18:33.466Z,2.38
2023-04-06T08:21:00.626Z,2.30
2023-04-06T08:23:34.542Z,2.20
2023-04-06T08:26:01.797Z,2.47
2023-04-06T08:28:29.041Z,1.98
2023-04-06T08:31:02.571Z,2.17
2023-04-06T08:33:37.728Z,2.05
2023-04-06T08:36:15.535Z,2.10
2023-04-06T08:38:43.947Z,1.90
2023-04-06T08:41:12.116Z,2.15
2023-04-06T08:43:54.728Z,2.15
2023-04-06T08:46:22.951Z,2.28
2023-04-06T08:48:51.039Z,2.13
2023-04-06T08:51:25.599Z,2.30
2023-04-06T08:53:55.426Z,2.50
2023-04-06T08:56:33.477Z,2.47
2023-04-06T08:59:00.768Z,2.30
2023-04-06T09:01:28.678Z,2.40
2023-04-06T09:04:08.747Z,2.60
2023-04-06T09:06:43.381Z,2.60
2023-04-06T09:09:24.890Z,2.20
2023-04-06T09:11:53.072Z,2.20
2023-04-06T09:14:42.447Z,2.60
2023-04-06T09:17:09.657Z,2.72
2023-04-06T09:19:53.626Z,3.00
2023-04-06T09:22:21.324Z,2.88
2023-04-06T09:24:49.673Z,2.90
2023-04-06T09:27:24.384Z,2.72
2023-04-06T09:29:51.622Z,2.75
2023-04-06T09:32:25.531Z,3.05
2023-04-06T09:34:52.755Z,3.03
2023-04-06T09:37:20.885Z,2.70
2023-04-06T09:39:54.822Z,3.10
2023-04-06T09:42:26.566Z,3.03
2023-04-06T09:45:00.631Z,3.30
2023-04-06T09:47:29.424Z,2.97
2023-04-06T09:50:07.397Z,2.75
2023-04-06T09:52:42.344Z,2.45
2023-04-06T09:55:09.995Z,3.08
2023-04-06T09:57:49.466Z,2.60
2023-04-06T10:00:20.287Z,2.60
2023-04-06T10:03:09.924Z,2.53
2023-04-06T10:05:39.732Z,2.38
2023-04-06T10:08:27.436Z,2.45
2023-04-06T10:10:55.822Z,2.38
2023-04-06T10:13:30.365Z,2.50
2023-04-06T10:15:57.887Z,2.80
2023-04-06T10:18:25.104Z,2.30
2023-04-06T10:21:01.402Z,2.28
2023-04-06T10:23:32.274Z,2.20
2023-04-06T10:26:06.481Z,2.28
2023-04-06T10:28:35.424Z,2.10
2023-04-06T10:31:10.424Z,2.03
2023-04-06T10:33:37.579Z,2.03
2023-04-06T10:36:17.427Z,2.10
2023-04-06T10:38:44.601Z,1.88
2023-04-06T10:41:12.775Z,2.00
2023-04-06T10:43:48.679Z,2.22
2023-04-06T10:46:26.264Z,1.55
2023-04-06T10:49:00.494Z,2.80
2023-04-06T10:51:28.758Z,2.20
2023-04-06T10:54:03.599Z,2.90
2023-04-06T10:56:32.867Z,3.08
2023-04-06T10:59:00.040Z,2.35
2023-04-06T11:01:35.526Z,2.97
2023-04-06T11:04:03.550Z,3.38
2023-04-06T11:06:39.529Z,4.10
2023-04-06T11:09:13.418Z,4.38
2023-04-06T11:11:47.610Z,4.47
2023-04-06T19:08:29.566Z,2.47
2023-04-06T19:11:03.673Z,2.43
2023-04-06T19:13:31.315Z,2.50
2023-04-06T19:18:32.592Z,2.50
2023-04-06T19:20:59.744Z,2.55
2023-04-06T19:23:33.747Z,2.80
2023-04-06T19:26:01.003Z,2.60
2023-04-06T19:28:28.104Z,2.35
2023-04-06T19:31:01.594Z,2.17
2023-04-06T19:33:28.977Z,2.33
2023-04-06T19:36:02.902Z,2.25
2023-04-06T19:38:30.363Z,2.72
2023-04-06T19:40:57.559Z,2.45
2023-04-06T19:43:31.595Z,2.45
2023-04-06T19:45:58.830Z,2.38
2023-04-06T19:48:32.857Z,2.40
2023-04-06T19:51:00.339Z,2.38
2023-04-06T19:53:27.500Z,2.35
2023-04-06T19:56:01.636Z,2.38
2023-04-06T19:58:28.815Z,2.47
2023-04-06T20:00:55.951Z,2.60
2023-04-06T20:03:29.743Z,2.45
2023-04-06T20:05:57.059Z,2.20
2023-04-06T20:08:36.824Z,2.28
2023-04-06T20:11:11.633Z,2.53
2023-04-06T20:13:45.610Z,2.65
2023-04-06T20:16:12.893Z,2.60
2023-04-06T20:18:40.061Z,2.70
2023-04-06T20:21:14.166Z,2.88
2023-04-06T20:23:41.535Z,2.95
2023-04-06T20:26:10.659Z,2.90
2023-04-06T20:28:45.758Z,2.80
2023-04-06T20:31:12.958Z,3.00
2023-04-06T20:33:47.706Z,2.50
2023-04-06T20:36:14.865Z,2.60
2023-04-06T20:38:41.974Z,2.50
2023-04-06T20:41:15.701Z,2.53
2023-04-06T20:43:42.857Z,2.92
2023-04-06T20:46:22.755Z,3.20
2023-04-06T20:48:50.025Z,2.80
2023-04-06T20:51:21.201Z,2.53
2023-04-06T20:53:54.599Z,2.85
2023-04-06T20:56:22.180Z,2.78
2023-04-06T21:01:23.878Z,2.53
2023-04-06T21:03:51.348Z,2.97
2023-04-06T21:06:25.611Z,2.83
2023-04-06T21:09:13.525Z,2.80
2023-04-06T21:11:47.755Z,2.30
2023-04-06T21:14:15.082Z,2.35
2023-04-06T21:16:42.231Z,2.40
2023-04-06T21:19:15.728Z,2.88
2023-04-06T21:21:42.886Z,2.70
2023-04-06T21:24:09.976Z,2.38
2023-04-06T21:26:43.620Z,2.88
2023-04-06T21:29:10.852Z,2.47
2023-04-06T21:31:47.598Z,2.45
2023-04-06T21:34:15.206Z,3.05
2023-04-06T21:36:49.770Z,2.58
2023-04-06T21:39:16.955Z,2.90
2023-04-06T21:41:44.087Z,2.55
2023-04-06T21:44:17.915Z,2.70
2023-04-06T21:46:45.323Z,3.10
2023-04-06T21:49:18.728Z,2.95
2023-04-06T21:51:46.147Z,2.80
2023-04-06T21:54:13.437Z,2.75
2023-04-06T21:56:47.708Z,3.00
2023-04-06T21:59:15.817Z,2.65
2023-04-06T22:01:49.751Z,2.85
2023-04-06T22:04:17.531Z,2.70
2023-04-06T22:06:45.027Z,2.83
2023-04-06T22:09:18.632Z,3.58
2023-04-06T22:11:45.797Z,2.63
2023-04-06T22:14:19.967Z,2.78
2023-04-06T22:16:47.446Z,2.67
2023-04-06T22:19:14.675Z,3.00
2023-04-06T22:21:48.637Z,3.30
2023-04-06T22:24:15.920Z,2.90
2023-04-06T22:26:49.675Z,3.40
2023-04-06T22:29:16.859Z,3.33
2023-04-06T22:31:46.665Z,3.10
2023-04-06T22:34:20.612Z,3.00
2023-04-06T22:36:47.763Z,2.90
2023-04-06T22:39:21.688Z,3.40
2023-04-06T22:41:48.942Z,3.08
2023-04-06T22:44:16.345Z,2.90
2023-04-06T22:46:50.754Z,2.88
2023-04-06T22:49:17.964Z,3.00
2023-04-06T22:51:51.871Z,2.60
2023-04-06T22:54:19.347Z,3.20
2023-04-06T22:59:20.777Z,3.42
2023-04-06T23:01:48.076Z,3.08
2023-04-06T23:04:16.061Z,2.97
2023-04-06T23:06:50.646Z,3.28
2023-04-06T23:09:24.683Z,3.17
2023-04-06T23:11:58.802Z,3.25
2023-04-06T23:14:26.054Z,3.38
2023-04-06T23:16:53.173Z,3.20
2023-04-06T23:19:26.650Z,3.45
2023-04-06T23:21:56.017Z,2.80
2023-04-06T23:24:29.772Z,2.85
2023-04-06T23:26:57.001Z,3.17
2023-04-06T23:29:24.174Z,3.50
2023-04-06T23:31:57.690Z,3.60
2023-04-06T23:34:24.962Z,3.47
2023-04-06T23:36:59.708Z,3.17
2023-04-06T23:39:26.934Z,3.63
2023-04-06T23:42:00.655Z,3.45
2023-04-06T23:44:30.765Z,3.72
2023-04-06T23:46:58.137Z,3.90
2023-04-06T23:49:31.708Z,3.47
2023-04-06T23:51:58.878Z,3.17
2023-04-06T23:54:32.755Z,3.45
2023-04-06T23:57:01.323Z,3.95
2023-04-06T23:59:28.609Z,4.03
